sensor_id;sensor_type;location;lat;lon;timestamp;temperature;humidity
38866;DHT22;62686;48.984;8.394;2022-12-18T00:01:31;-9.70;45.50
38866;DHT22;62686;48.984;8.394;2022-12-18T00:04:00;-9.70;45.90
38866;DHT22;62686;48.984;8.394;2022-12-18T00:06:29;-9.70;45.70
38866;DHT22;62686;48.984;8.394;2022-12-18T00:08:59;-9.80;43.80
38866;DHT22;62686;48.984;8.394;2022-12-18T00:11:29;-9.80;41.80
38866;DHT22;62686;48.984;8.394;2022-12-18T00:14:00;-9.70;41.90
38866;DHT22;62686;48.984;8.394;2022-12-18T00:20:15;-9.70;43.30
38866;DHT22;62686;48.984;8.394;2022-12-18T00:22:48;-9.70;42.30
38866;DHT22;62686;48.984;8.394;2022-12-18T00:25:16;-9.70;41.90
38866;DHT22;62686;48.984;8.394;2022-12-18T00:27:44;-9.70;41.60
38866;DHT22;62686;48.984;8.394;2022-12-18T00:30:14;-9.60;42.10
38866;DHT22;62686;48.984;8.394;2022-12-18T00:32:42;-9.70;41.50
38866;DHT22;62686;48.984;8.394;2022-12-18T00:35:10;-9.70;40.80
38866;DHT22;62686;48.984;8.394;2022-12-18T00:37:38;-9.60;41.20
38866;DHT22;62686;48.984;8.394;2022-12-18T00:40:07;-9.60;42.30
38866;DHT22;62686;48.984;8.394;2022-12-18T00:42:35;-9.60;42.70
38866;DHT22;62686;48.984;8.394;2022-12-18T00:45:24;-9.60;41.90
38866;DHT22;62686;48.984;8.394;2022-12-18T00:47:52;-9.70;41.00
38866;DHT22;62686;48.984;8.394;2022-12-18T00:50:21;-9.70;40.50
38866;DHT22;62686;48.984;8.394;2022-12-18T00:52:49;-9.70;40.00
38866;DHT22;62686;48.984;8.394;2022-12-18T00:55:18;-9.70;40.20
38866;DHT22;62686;48.984;8.394;2022-12-18T00:57:46;-9.70;41.10
38866;DHT22;62686;48.984;8.394;2022-12-18T01:00:15;-9.60;42.60
38866;DHT22;62686;48.984;8.394;2022-12-18T01:02:44;-9.50;44.00
38866;DHT22;62686;48.984;8.394;2022-12-18T01:05:13;-9.50;44.70
38866;DHT22;62686;48.984;8.394;2022-12-18T01:07:41;-9.40;45.40
38866;DHT22;62686;48.984;8.394;2022-12-18T01:10:11;-9.40;45.00
38866;DHT22;62686;48.984;8.394;2022-12-18T01:12:39;-9.50;44.20
38866;DHT22;62686;48.984;8.394;2022-12-18T01:15:09;-9.40;44.00
38866;DHT22;62686;48.984;8.394;2022-12-18T01:17:37;-9.40;43.80
38866;DHT22;62686;48.984;8.394;2022-12-18T01:20:08;-9.50;42.90
38866;DHT22;62686;48.984;8.394;2022-12-18T01:22:37;-9.40;43.20
38866;DHT22;62686;48.984;8.394;2022-12-18T01:25:05;-9.40;43.80
38866;DHT22;62686;48.984;8.394;2022-12-18T01:27:34;-9.40;43.80
38866;DHT22;62686;48.984;8.394;2022-12-18T01:30:02;-9.30;43.50
38866;DHT22;62686;48.984;8.394;2022-12-18T01:32:31;-9.20;43.80
38866;DHT22;62686;48.984;8.394;2022-12-18T01:34:59;-9.20;43.80
38866;DHT22;62686;48.984;8.394;2022-12-18T01:37:28;-9.20;43.30
38866;DHT22;62686;48.984;8.394;2022-12-18T01:39:56;-9.10;44.30
38866;DHT22;62686;48.984;8.394;2022-12-18T01:42:24;-9.00;45.30
38866;DHT22;62686;48.984;8.394;2022-12-18T01:45:04;-9.00;45.80
38866;DHT22;62686;48.984;8.394;2022-12-18T01:47:39;-9.00;45.30
38866;DHT22;62686;48.984;8.394;2022-12-18T01:50:10;-9.00;45.00
38866;DHT22;62686;48.984;8.394;2022-12-18T01:52:41;-9.10;43.80
38866;DHT22;62686;48.984;8.394;2022-12-18T01:55:11;-9.10;43.00
38866;DHT22;62686;48.984;8.394;2022-12-18T01:57:40;-9.20;42.50
38866;DHT22;62686;48.984;8.394;2022-12-18T02:00:11;-9.20;41.90
38866;DHT22;62686;48.984;8.394;2022-12-18T02:02:41;-9.20;41.10
38866;DHT22;62686;48.984;8.394;2022-12-18T02:05:10;-9.30;39.70
38866;DHT22;62686;48.984;8.394;2022-12-18T02:07:48;-9.40;38.70
38866;DHT22;62686;48.984;8.394;2022-12-18T02:10:24;-9.40;38.90
38866;DHT22;62686;48.984;8.394;2022-12-18T02:12:57;-9.40;39.50
38866;DHT22;62686;48.984;8.394;2022-12-18T02:15:31;-9.40;39.10
38866;DHT22;62686;48.984;8.394;2022-12-18T02:18:06;-9.50;38.50
38866;DHT22;62686;48.984;8.394;2022-12-18T02:20:38;-9.50;37.40
38866;DHT22;62686;48.984;8.394;2022-12-18T02:23:18;-9.60;35.50
38866;DHT22;62686;48.984;8.394;2022-12-18T02:26:12;-9.60;35.00
38866;DHT22;62686;48.984;8.394;2022-12-18T02:28:46;-9.60;35.80
38866;DHT22;62686;48.984;8.394;2022-12-18T02:31:19;-9.70;36.30
38866;DHT22;62686;48.984;8.394;2022-12-18T02:33:49;-9.70;34.60
38866;DHT22;62686;48.984;8.394;2022-12-18T02:36:19;-9.80;32.60
38866;DHT22;62686;48.984;8.394;2022-12-18T02:38:49;-9.90;30.20
38866;DHT22;62686;48.984;8.394;2022-12-18T02:41:19;-10.00;29.50
38866;DHT22;62686;48.984;8.394;2022-12-18T02:43:48;-10.00;29.80
38866;DHT22;62686;48.984;8.394;2022-12-18T02:46:32;-10.00;29.70
38866;DHT22;62686;48.984;8.394;2022-12-18T02:49:12;-10.00;29.70
38866;DHT22;62686;48.984;8.394;2022-12-18T02:51:48;-10.00;30.60
38866;DHT22;62686;48.984;8.394;2022-12-18T02:54:30;-10.10;31.10
38866;DHT22;62686;48.984;8.394;2022-12-18T02:57:08;-10.10;30.00
38866;DHT22;62686;48.984;8.394;2022-12-18T02:59:41;-10.10;30.30
38866;DHT22;62686;48.984;8.394;2022-12-18T03:02:19;-10.10;30.30
38866;DHT22;62686;48.984;8.394;2022-12-18T03:04:55;-10.10;30.60
38866;DHT22;62686;48.984;8.394;2022-12-18T03:07:34;-10.10;31.70
38866;DHT22;62686;48.984;8.394;2022-12-18T03:10:07;-10.00;33.10
38866;DHT22;62686;48.984;8.394;2022-12-18T03:12:40;-10.00;34.20
38866;DHT22;62686;48.984;8.394;2022-12-18T03:15:13;-9.90;34.80
38866;DHT22;62686;48.984;8.394;2022-12-18T03:17:46;-9.90;35.10
38866;DHT22;62686;48.984;8.394;2022-12-18T03:20:19;-9.90;35.20
38866;DHT22;62686;48.984;8.394;2022-12-18T03:22:50;-9.90;35.30
38866;DHT22;62686;48.984;8.394;2022-12-18T03:25:20;-9.90;33.70
38866;DHT22;62686;48.984;8.394;2022-12-18T03:27:52;-10.00;30.30
38866;DHT22;62686;48.984;8.394;2022-12-18T03:30:21;-10.10;29.30
38866;DHT22;62686;48.984;8.394;2022-12-18T03:32:53;-10.10;28.80
38866;DHT22;62686;48.984;8.394;2022-12-18T03:35:29;-10.20;28.30
38866;DHT22;62686;48.984;8.394;2022-12-18T03:37:59;-10.30;27.70
38866;DHT22;62686;48.984;8.394;2022-12-18T03:40:35;-10.20;28.90
38866;DHT22;62686;48.984;8.394;2022-12-18T03:43:10;-10.20;28.70
38866;DHT22;62686;48.984;8.394;2022-12-18T03:45:43;-10.20;28.90
38866;DHT22;62686;48.984;8.394;2022-12-18T03:48:19;-10.20;29.80
38866;DHT22;62686;48.984;8.394;2022-12-18T03:50:53;-10.20;30.70
38866;DHT22;62686;48.984;8.394;2022-12-18T03:53:28;-10.20;31.20
38866;DHT22;62686;48.984;8.394;2022-12-18T03:56:00;-10.20;32.00
38866;DHT22;62686;48.984;8.394;2022-12-18T03:58:32;-10.10;33.10
38866;DHT22;62686;48.984;8.394;2022-12-18T04:01:04;-10.10;34.30
38866;DHT22;62686;48.984;8.394;2022-12-18T04:03:34;-10.00;35.80
38866;DHT22;62686;48.984;8.394;2022-12-18T04:06:04;-9.90;37.30
38866;DHT22;62686;48.984;8.394;2022-12-18T04:08:33;-9.80;39.90
38866;DHT22;62686;48.984;8.394;2022-12-18T04:11:03;-9.70;41.70
38866;DHT22;62686;48.984;8.394;2022-12-18T04:13:35;-9.60;42.70
38866;DHT22;62686;48.984;8.394;2022-12-18T04:16:05;-9.50;43.90
38866;DHT22;62686;48.984;8.394;2022-12-18T04:18:33;-9.40;44.10
38866;DHT22;62686;48.984;8.394;2022-12-18T04:21:01;-9.40;44.50
38866;DHT22;62686;48.984;8.394;2022-12-18T04:23:29;-9.30;45.10
38866;DHT22;62686;48.984;8.394;2022-12-18T04:25:57;-9.20;45.70
38866;DHT22;62686;48.984;8.394;2022-12-18T04:28:25;-9.10;46.10
38866;DHT22;62686;48.984;8.394;2022-12-18T04:30:54;-9.00;46.70
38866;DHT22;62686;48.984;8.394;2022-12-18T04:33:22;-8.90;47.80
38866;DHT22;62686;48.984;8.394;2022-12-18T04:35:50;-8.80;48.70
38866;DHT22;62686;48.984;8.394;2022-12-18T04:38:18;-8.70;49.20
38866;DHT22;62686;48.984;8.394;2022-12-18T04:40:46;-8.60;50.00
38866;DHT22;62686;48.984;8.394;2022-12-18T04:43:14;-8.50;50.60
38866;DHT22;62686;48.984;8.394;2022-12-18T04:45:42;-8.40;50.90
38866;DHT22;62686;48.984;8.394;2022-12-18T04:48:12;-8.30;51.00
38866;DHT22;62686;48.984;8.394;2022-12-18T04:50:40;-8.30;50.70
38866;DHT22;62686;48.984;8.394;2022-12-18T04:53:08;-8.30;50.20
38866;DHT22;62686;48.984;8.394;2022-12-18T04:55:36;-8.30;50.00
38866;DHT22;62686;48.984;8.394;2022-12-18T04:58:04;-8.20;50.30
38866;DHT22;62686;48.984;8.394;2022-12-18T05:00:32;-8.20;51.00
38866;DHT22;62686;48.984;8.394;2022-12-18T05:03:01;-8.00;52.00
38866;DHT22;62686;48.984;8.394;2022-12-18T05:05:30;-7.90;52.60
38866;DHT22;62686;48.984;8.394;2022-12-18T05:07:58;-7.90;53.30
38866;DHT22;62686;48.984;8.394;2022-12-18T05:10:26;-7.80;53.90
38866;DHT22;62686;48.984;8.394;2022-12-18T05:12:56;-7.70;55.50
38866;DHT22;62686;48.984;8.394;2022-12-18T05:15:28;-7.60;55.50
38866;DHT22;62686;48.984;8.394;2022-12-18T05:17:57;-7.60;55.70
38866;DHT22;62686;48.984;8.394;2022-12-18T05:20:26;-7.50;56.00
38866;DHT22;62686;48.984;8.394;2022-12-18T05:22:55;-7.50;56.30
38866;DHT22;62686;48.984;8.394;2022-12-18T05:25:24;-7.40;56.80
38866;DHT22;62686;48.984;8.394;2022-12-18T05:27:52;-7.30;57.10
38866;DHT22;62686;48.984;8.394;2022-12-18T05:30:20;-7.20;57.20
38866;DHT22;62686;48.984;8.394;2022-12-18T05:32:49;-7.20;57.30
38866;DHT22;62686;48.984;8.394;2022-12-18T05:35:17;-7.10;57.30
38866;DHT22;62686;48.984;8.394;2022-12-18T05:37:45;-7.10;57.10
38866;DHT22;62686;48.984;8.394;2022-12-18T05:40:14;-7.00;56.90
38866;DHT22;62686;48.984;8.394;2022-12-18T05:42:42;-7.00;57.00
38866;DHT22;62686;48.984;8.394;2022-12-18T05:45:10;-6.90;56.40
38866;DHT22;62686;48.984;8.394;2022-12-18T05:47:38;-6.90;56.20
38866;DHT22;62686;48.984;8.394;2022-12-18T05:50:07;-6.90;55.60
38866;DHT22;62686;48.984;8.394;2022-12-18T05:52:35;-6.90;55.60
38866;DHT22;62686;48.984;8.394;2022-12-18T05:55:04;-6.90;55.40
38866;DHT22;62686;48.984;8.394;2022-12-18T05:57:33;-6.90;55.20
38866;DHT22;62686;48.984;8.394;2022-12-18T06:00:02;-6.90;55.20
38866;DHT22;62686;48.984;8.394;2022-12-18T06:02:30;-6.90;55.70
38866;DHT22;62686;48.984;8.394;2022-12-18T06:04:58;-6.90;55.30
38866;DHT22;62686;48.984;8.394;2022-12-18T06:07:26;-6.80;55.60
38866;DHT22;62686;48.984;8.394;2022-12-18T06:09:54;-6.80;55.50
38866;DHT22;62686;48.984;8.394;2022-12-18T06:12:22;-6.80;55.70
38866;DHT22;62686;48.984;8.394;2022-12-18T06:14:52;-6.80;56.00
38866;DHT22;62686;48.984;8.394;2022-12-18T06:17:20;-6.70;56.40
38866;DHT22;62686;48.984;8.394;2022-12-18T06:19:48;-6.70;56.40
38866;DHT22;62686;48.984;8.394;2022-12-18T06:25:25;-6.70;56.90
38866;DHT22;62686;48.984;8.394;2022-12-18T06:27:53;-6.70;56.90
38866;DHT22;62686;48.984;8.394;2022-12-18T06:30:23;-6.70;57.10
38866;DHT22;62686;48.984;8.394;2022-12-18T06:32:51;-6.70;57.90
38866;DHT22;62686;48.984;8.394;2022-12-18T06:35:22;-6.60;57.60
38866;DHT22;62686;48.984;8.394;2022-12-18T06:37:50;-6.60;57.60
38866;DHT22;62686;48.984;8.394;2022-12-18T06:40:18;-6.60;57.50
38866;DHT22;62686;48.984;8.394;2022-12-18T06:42:46;-6.70;55.30
38866;DHT22;62686;48.984;8.394;2022-12-18T06:45:14;-6.70;55.10
38866;DHT22;62686;48.984;8.394;2022-12-18T06:47:44;-6.70;55.60
38866;DHT22;62686;48.984;8.394;2022-12-18T06:50:12;-6.60;56.40
38866;DHT22;62686;48.984;8.394;2022-12-18T06:52:40;-6.60;56.80
38866;DHT22;62686;48.984;8.394;2022-12-18T06:55:11;-6.60;56.60
38866;DHT22;62686;48.984;8.394;2022-12-18T06:57:39;-6.60;56.90
38866;DHT22;62686;48.984;8.394;2022-12-18T07:00:07;-6.60;57.30
38866;DHT22;62686;48.984;8.394;2022-12-18T07:02:35;-6.50;57.70
38866;DHT22;62686;48.984;8.394;2022-12-18T07:05:06;-6.50;58.00
38866;DHT22;62686;48.984;8.394;2022-12-18T07:07:36;-6.50;58.50
38866;DHT22;62686;48.984;8.394;2022-12-18T07:10:05;-6.50;58.30
38866;DHT22;62686;48.984;8.394;2022-12-18T07:12:33;-6.40;58.50
38866;DHT22;62686;48.984;8.394;2022-12-18T07:15:01;-6.40;58.50
38866;DHT22;62686;48.984;8.394;2022-12-18T07:17:30;-6.40;58.80
38866;DHT22;62686;48.984;8.394;2022-12-18T07:19:58;-6.40;58.80
38866;DHT22;62686;48.984;8.394;2022-12-18T07:22:27;-6.40;58.00
38866;DHT22;62686;48.984;8.394;2022-12-18T07:24:57;-6.50;56.70
38866;DHT22;62686;48.984;8.394;2022-12-18T07:27:25;-6.40;57.50
38866;DHT22;62686;48.984;8.394;2022-12-18T07:29:53;-6.40;57.40
38866;DHT22;62686;48.984;8.394;2022-12-18T07:32:21;-6.40;57.30
38866;DHT22;62686;48.984;8.394;2022-12-18T07:34:49;-6.40;56.60
38866;DHT22;62686;48.984;8.394;2022-12-18T07:37:17;-6.40;57.10
38866;DHT22;62686;48.984;8.394;2022-12-18T07:39:47;-6.30;57.50
38866;DHT22;62686;48.984;8.394;2022-12-18T07:42:15;-6.30;57.70
38866;DHT22;62686;48.984;8.394;2022-12-18T07:45:01;-6.20;58.30
38866;DHT22;62686;48.984;8.394;2022-12-18T07:47:34;-6.20;58.90
38866;DHT22;62686;48.984;8.394;2022-12-18T07:50:03;-6.10;58.60
38866;DHT22;62686;48.984;8.394;2022-12-18T07:52:31;-6.00;58.00
38866;DHT22;62686;48.984;8.394;2022-12-18T07:55:01;-6.00;57.70
38866;DHT22;62686;48.984;8.394;2022-12-18T07:57:29;-6.00;56.60
38866;DHT22;62686;48.984;8.394;2022-12-18T08:00:15;-6.00;55.60
38866;DHT22;62686;48.984;8.394;2022-12-18T08:02:43;-6.00;55.80
38866;DHT22;62686;48.984;8.394;2022-12-18T08:05:11;-6.00;55.40
38866;DHT22;62686;48.984;8.394;2022-12-18T08:07:39;-6.00;55.50
38866;DHT22;62686;48.984;8.394;2022-12-18T08:10:09;-6.00;55.60
38866;DHT22;62686;48.984;8.394;2022-12-18T08:12:37;-6.00;56.10
38866;DHT22;62686;48.984;8.394;2022-12-18T08:15:06;-6.00;56.00
38866;DHT22;62686;48.984;8.394;2022-12-18T08:17:34;-6.00;55.60
38866;DHT22;62686;48.984;8.394;2022-12-18T08:20:03;-6.10;55.90
38866;DHT22;62686;48.984;8.394;2022-12-18T08:22:33;-6.10;55.80
38866;DHT22;62686;48.984;8.394;2022-12-18T08:25:01;-6.00;55.90
38866;DHT22;62686;48.984;8.394;2022-12-18T08:27:30;-6.00;57.00
38866;DHT22;62686;48.984;8.394;2022-12-18T08:29:58;-6.00;57.50
38866;DHT22;62686;48.984;8.394;2022-12-18T08:32:27;-5.90;58.40
38866;DHT22;62686;48.984;8.394;2022-12-18T08:34:55;-5.80;58.70
38866;DHT22;62686;48.984;8.394;2022-12-18T08:37:24;-5.80;57.90
38866;DHT22;62686;48.984;8.394;2022-12-18T08:39:52;-5.80;57.30
38866;DHT22;62686;48.984;8.394;2022-12-18T08:42:20;-5.80;56.50
38866;DHT22;62686;48.984;8.394;2022-12-18T08:45:08;-5.80;55.90
38866;DHT22;62686;48.984;8.394;2022-12-18T08:47:36;-5.80;55.70
38866;DHT22;62686;48.984;8.394;2022-12-18T08:50:05;-5.90;55.10
38866;DHT22;62686;48.984;8.394;2022-12-18T08:52:33;-5.80;56.70
38866;DHT22;62686;48.984;8.394;2022-12-18T08:55:04;-5.70;58.30
38866;DHT22;62686;48.984;8.394;2022-12-18T08:57:33;-5.60;60.30
38866;DHT22;62686;48.984;8.394;2022-12-18T09:00:01;-5.50;59.80
38866;DHT22;62686;48.984;8.394;2022-12-18T09:02:30;-5.50;58.40
38866;DHT22;62686;48.984;8.394;2022-12-18T09:04:58;-5.40;58.50
38866;DHT22;62686;48.984;8.394;2022-12-18T09:07:26;-5.40;56.40
38866;DHT22;62686;48.984;8.394;2022-12-18T09:09:54;-5.40;52.20
38866;DHT22;62686;48.984;8.394;2022-12-18T09:12:22;-5.40;49.80
38866;DHT22;62686;48.984;8.394;2022-12-18T09:14:50;-5.40;49.30
38866;DHT22;62686;48.984;8.394;2022-12-18T09:17:19;-5.40;49.90
38866;DHT22;62686;48.984;8.394;2022-12-18T09:19:48;-5.40;50.70
38866;DHT22;62686;48.984;8.394;2022-12-18T09:22:16;-5.30;51.00
38866;DHT22;62686;48.984;8.394;2022-12-18T09:24:44;-5.30;50.70
38866;DHT22;62686;48.984;8.394;2022-12-18T09:27:12;-5.20;54.20
38866;DHT22;62686;48.984;8.394;2022-12-18T09:29:41;-5.10;54.10
38866;DHT22;62686;48.984;8.394;2022-12-18T09:32:09;-5.00;54.90
38866;DHT22;62686;48.984;8.394;2022-12-18T09:34:37;-4.80;56.50
38866;DHT22;62686;48.984;8.394;2022-12-18T09:37:06;-4.60;57.30
38866;DHT22;62686;48.984;8.394;2022-12-18T09:39:38;-4.50;57.70
38866;DHT22;62686;48.984;8.394;2022-12-18T09:42:06;-4.60;51.00
38866;DHT22;62686;48.984;8.394;2022-12-18T09:44:41;-4.50;52.50
38866;DHT22;62686;48.984;8.394;2022-12-18T09:47:14;-4.50;51.40
38866;DHT22;62686;48.984;8.394;2022-12-18T09:49:46;-4.60;49.80
38866;DHT22;62686;48.984;8.394;2022-12-18T09:52:21;-4.70;45.70
38866;DHT22;62686;48.984;8.394;2022-12-18T09:54:55;-4.90;37.60
38866;DHT22;62686;48.984;8.394;2022-12-18T09:57:24;-4.90;38.70
38866;DHT22;62686;48.984;8.394;2022-12-18T09:59:55;-5.00;35.60
38866;DHT22;62686;48.984;8.394;2022-12-18T10:02:25;-4.90;41.80
38866;DHT22;62686;48.984;8.394;2022-12-18T10:05:02;-4.80;47.10
38866;DHT22;62686;48.984;8.394;2022-12-18T10:07:41;-4.80;42.20
38866;DHT22;62686;48.984;8.394;2022-12-18T10:10:21;-4.90;34.50
38866;DHT22;62686;48.984;8.394;2022-12-18T10:12:56;-4.80;40.00
38866;DHT22;62686;48.984;8.394;2022-12-18T10:15:31;-4.90;36.60
38866;DHT22;62686;48.984;8.394;2022-12-18T10:18:06;-4.70;46.60
38866;DHT22;62686;48.984;8.394;2022-12-18T10:20:46;-4.60;50.10
38866;DHT22;62686;48.984;8.394;2022-12-18T10:23:21;-4.50;52.30
38866;DHT22;62686;48.984;8.394;2022-12-18T10:25:55;-4.40;53.20
38866;DHT22;62686;48.984;8.394;2022-12-18T10:28:26;-4.30;55.70
38866;DHT22;62686;48.984;8.394;2022-12-18T10:30:55;-4.30;52.50
38866;DHT22;62686;48.984;8.394;2022-12-18T10:33:27;-4.20;51.80
38866;DHT22;62686;48.984;8.394;2022-12-18T10:35:55;-4.20;49.10
38866;DHT22;62686;48.984;8.394;2022-12-18T10:38:26;-4.00;50.00
38866;DHT22;62686;48.984;8.394;2022-12-18T10:40:57;-4.00;45.40
38866;DHT22;62686;48.984;8.394;2022-12-18T10:43:26;-4.10;22.60
38866;DHT22;62686;48.984;8.394;2022-12-18T10:46:00;-4.00;31.70
38866;DHT22;62686;48.984;8.394;2022-12-18T10:48:30;-4.00;31.60
38866;DHT22;62686;48.984;8.394;2022-12-18T10:51:00;-4.10;16.50
38866;DHT22;62686;48.984;8.394;2022-12-18T10:53:40;-4.20;13.90
38866;DHT22;62686;48.984;8.394;2022-12-18T10:56:09;-4.20;18.40
38866;DHT22;62686;48.984;8.394;2022-12-18T10:58:38;-4.10;21.00
38866;DHT22;62686;48.984;8.394;2022-12-18T11:01:09;-4.20;13.90
38866;DHT22;62686;48.984;8.394;2022-12-18T11:03:40;-4.20;18.80
38866;DHT22;62686;48.984;8.394;2022-12-18T11:06:10;-4.00;27.90
38866;DHT22;62686;48.984;8.394;2022-12-18T11:08:41;-3.90;35.10
38866;DHT22;62686;48.984;8.394;2022-12-18T11:11:19;-4.10;6.30
38866;DHT22;62686;48.984;8.394;2022-12-18T11:13:58;-4.40;4.70
38866;DHT22;62686;48.984;8.394;2022-12-18T11:16:29;-4.30;12.30
38866;DHT22;62686;48.984;8.394;2022-12-18T11:19:13;-4.40;7.00
38866;DHT22;62686;48.984;8.394;2022-12-18T11:21:43;-4.40;11.10
38866;DHT22;62686;48.984;8.394;2022-12-18T11:24:20;-4.30;20.60
38866;DHT22;62686;48.984;8.394;2022-12-18T11:26:50;-4.20;18.30
38866;DHT22;62686;48.984;8.394;2022-12-18T11:29:27;-4.10;15.70
38866;DHT22;62686;48.984;8.394;2022-12-18T11:35:02;-3.70;28.80
38866;DHT22;62686;48.984;8.394;2022-12-18T11:37:33;-3.50;8.30
38866;DHT22;62686;48.984;8.394;2022-12-18T11:40:09;-3.20;10.40
38866;DHT22;62686;48.984;8.394;2022-12-18T11:42:42;-2.90;27.20
38866;DHT22;62686;48.984;8.394;2022-12-18T11:49:12;-2.50;24.90
38866;DHT22;62686;48.984;8.394;2022-12-18T11:51:51;-2.50;20.20
38866;DHT22;62686;48.984;8.394;2022-12-18T11:54:21;-2.60;1.00
38866;DHT22;62686;48.984;8.394;2022-12-18T11:56:54;-2.40;1.00
38866;DHT22;62686;48.984;8.394;2022-12-18T11:59:32;-2.50;1.00
38866;DHT22;62686;48.984;8.394;2022-12-18T12:02:16;-2.60;1.00
38866;DHT22;62686;48.984;8.394;2022-12-18T12:05:16;-2.60;1.00
38866;DHT22;62686;48.984;8.394;2022-12-18T12:07:54;-2.40;1.00
38866;DHT22;62686;48.984;8.394;2022-12-18T12:10:38;-2.40;1.00
38866;DHT22;62686;48.984;8.394;2022-12-18T12:13:23;-2.50;1.00
38866;DHT22;62686;48.984;8.394;2022-12-18T12:16:04;-2.50;1.00
38866;DHT22;62686;48.984;8.394;2022-12-18T12:18:44;-2.60;1.00
38866;DHT22;62686;48.984;8.394;2022-12-18T12:21:20;-2.80;1.00
38866;DHT22;62686;48.984;8.394;2022-12-18T12:23:52;-2.90;1.00
38866;DHT22;62686;48.984;8.394;2022-12-18T12:26:27;-2.90;1.00
38866;DHT22;62686;48.984;8.394;2022-12-18T12:29:13;-2.90;1.00
38866;DHT22;62686;48.984;8.394;2022-12-18T12:32:01;-2.70;1.00
38866;DHT22;62686;48.984;8.394;2022-12-18T12:34:44;-2.50;1.00
38866;DHT22;62686;48.984;8.394;2022-12-18T12:37:29;-2.40;1.00
38866;DHT22;62686;48.984;8.394;2022-12-18T12:40:01;-2.40;1.00
38866;DHT22;62686;48.984;8.394;2022-12-18T12:42:44;-2.20;1.00
38866;DHT22;62686;48.984;8.394;2022-12-18T12:45:38;-2.10;1.00
38866;DHT22;62686;48.984;8.394;2022-12-18T12:48:16;-2.10;1.00
38866;DHT22;62686;48.984;8.394;2022-12-18T12:50:49;-2.00;1.00
38866;DHT22;62686;48.984;8.394;2022-12-18T12:53:23;-1.90;1.00
38866;DHT22;62686;48.984;8.394;2022-12-18T12:55:54;-1.90;1.00
38866;DHT22;62686;48.984;8.394;2022-12-18T12:58:31;-1.80;1.00
38866;DHT22;62686;48.984;8.394;2022-12-18T13:01:09;-1.70;1.00
38866;DHT22;62686;48.984;8.394;2022-12-18T13:03:46;-1.80;1.00
38866;DHT22;62686;48.984;8.394;2022-12-18T13:06:31;-1.70;1.00
38866;DHT22;62686;48.984;8.394;2022-12-18T13:09:06;-1.70;1.00
38866;DHT22;62686;48.984;8.394;2022-12-18T13:11:46;-1.60;1.00
38866;DHT22;62686;48.984;8.394;2022-12-18T13:14:42;-1.70;1.00
38866;DHT22;62686;48.984;8.394;2022-12-18T13:17:24;-1.60;1.00
38866;DHT22;62686;48.984;8.394;2022-12-18T13:20:22;-1.60;1.00
38866;DHT22;62686;48.984;8.394;2022-12-18T13:23:00;-1.70;1.00
38866;DHT22;62686;48.984;8.394;2022-12-18T13:25:34;-1.80;1.00
38866;DHT22;62686;48.984;8.394;2022-12-18T13:28:08;-1.90;1.00
38866;DHT22;62686;48.984;8.394;2022-12-18T13:30:54;-2.10;1.00
38866;DHT22;62686;48.984;8.394;2022-12-18T13:33:43;-2.20;1.00
38866;DHT22;62686;48.984;8.394;2022-12-18T13:36:34;-2.40;1.00
38866;DHT22;62686;48.984;8.394;2022-12-18T13:39:33;-2.40;1.00
38866;DHT22;62686;48.984;8.394;2022-12-18T13:42:41;-2.40;1.00
38866;DHT22;62686;48.984;8.394;2022-12-18T13:45:43;-2.30;1.00
38866;DHT22;62686;48.984;8.394;2022-12-18T13:48:35;-2.30;1.00
38866;DHT22;62686;48.984;8.394;2022-12-18T13:51:08;-2.30;1.00
38866;DHT22;62686;48.984;8.394;2022-12-18T13:53:42;-2.30;1.00
38866;DHT22;62686;48.984;8.394;2022-12-18T13:56:21;-2.40;1.00
38866;DHT22;62686;48.984;8.394;2022-12-18T13:59:13;-2.40;1.00
38866;DHT22;62686;48.984;8.394;2022-12-18T14:01:46;-2.50;1.00
38866;DHT22;62686;48.984;8.394;2022-12-18T14:04:21;-2.40;1.00
38866;DHT22;62686;48.984;8.394;2022-12-18T14:06:54;-2.40;1.00
38866;DHT22;62686;48.984;8.394;2022-12-18T14:09:25;-2.30;1.00
38866;DHT22;62686;48.984;8.394;2022-12-18T14:11:55;-2.30;1.00
38866;DHT22;62686;48.984;8.394;2022-12-18T14:14:46;-2.20;1.00
38866;DHT22;62686;48.984;8.394;2022-12-18T14:17:17;-2.30;1.00
38866;DHT22;62686;48.984;8.394;2022-12-18T14:19:49;-2.20;1.00
38866;DHT22;62686;48.984;8.394;2022-12-18T14:22:21;-2.30;1.00
38866;DHT22;62686;48.984;8.394;2022-12-18T14:25:25;-2.40;1.00
38866;DHT22;62686;48.984;8.394;2022-12-18T14:28:11;-2.50;1.00
38866;DHT22;62686;48.984;8.394;2022-12-18T14:30:42;-2.60;1.00
38866;DHT22;62686;48.984;8.394;2022-12-18T14:33:12;-2.60;1.00
38866;DHT22;62686;48.984;8.394;2022-12-18T14:35:43;-2.70;1.00
38866;DHT22;62686;48.984;8.394;2022-12-18T14:38:22;-2.80;1.00
38866;DHT22;62686;48.984;8.394;2022-12-18T14:40:54;-2.90;1.00
38866;DHT22;62686;48.984;8.394;2022-12-18T14:43:22;-2.90;4.30
38866;DHT22;62686;48.984;8.394;2022-12-18T14:45:54;-3.00;8.30
38866;DHT22;62686;48.984;8.394;2022-12-18T14:48:35;-3.10;7.40
38866;DHT22;62686;48.984;8.394;2022-12-18T14:51:05;-3.10;8.50
38866;DHT22;62686;48.984;8.394;2022-12-18T14:53:40;-3.30;10.50
38866;DHT22;62686;48.984;8.394;2022-12-18T14:56:16;-3.40;14.30
38866;DHT22;62686;48.984;8.394;2022-12-18T14:58:50;-3.50;17.70
38866;DHT22;62686;48.984;8.394;2022-12-18T15:01:21;-3.60;19.30
38866;DHT22;62686;48.984;8.394;2022-12-18T15:03:51;-3.70;22.60
38866;DHT22;62686;48.984;8.394;2022-12-18T15:06:27;-3.80;25.30
38866;DHT22;62686;48.984;8.394;2022-12-18T15:08:57;-3.90;27.10
38866;DHT22;62686;48.984;8.394;2022-12-18T15:11:45;-4.10;28.90
38866;DHT22;62686;48.984;8.394;2022-12-18T15:14:32;-4.10;33.30
38866;DHT22;62686;48.984;8.394;2022-12-18T15:17:04;-4.20;36.90
38866;DHT22;62686;48.984;8.394;2022-12-18T15:19:39;-4.30;39.50
38866;DHT22;62686;48.984;8.394;2022-12-18T15:22:26;-4.40;40.20
38866;DHT22;62686;48.984;8.394;2022-12-18T15:24:57;-4.40;41.80
38866;DHT22;62686;48.984;8.394;2022-12-18T15:27:31;-4.60;42.40
38866;DHT22;62686;48.984;8.394;2022-12-18T15:30:17;-4.70;42.20
38866;DHT22;62686;48.984;8.394;2022-12-18T15:32:46;-4.80;43.60
38866;DHT22;62686;48.984;8.394;2022-12-18T15:35:18;-4.90;46.10
38866;DHT22;62686;48.984;8.394;2022-12-18T15:37:46;-5.00;46.60
38866;DHT22;62686;48.984;8.394;2022-12-18T15:40:18;-5.10;46.10
38866;DHT22;62686;48.984;8.394;2022-12-18T15:42:46;-5.20;46.50
38866;DHT22;62686;48.984;8.394;2022-12-18T15:45:33;-5.30;47.50
38866;DHT22;62686;48.984;8.394;2022-12-18T15:48:20;-5.30;48.70
38866;DHT22;62686;48.984;8.394;2022-12-18T15:50:49;-5.30;51.00
38866;DHT22;62686;48.984;8.394;2022-12-18T15:53:18;-5.20;53.40
38866;DHT22;62686;48.984;8.394;2022-12-18T15:55:48;-5.10;55.50
38866;DHT22;62686;48.984;8.394;2022-12-18T15:59:23;-5.10;56.70
38866;DHT22;62686;48.984;8.394;2022-12-18T16:01:51;-5.00;59.10
38866;DHT22;62686;48.984;8.394;2022-12-18T16:04:22;-4.90;60.80
38866;DHT22;62686;48.984;8.394;2022-12-18T16:06:51;-4.80;62.90
38866;DHT22;62686;48.984;8.394;2022-12-18T16:09:39;-4.70;64.20
38866;DHT22;62686;48.984;8.394;2022-12-18T16:12:14;-4.60;65.40
38866;DHT22;62686;48.984;8.394;2022-12-18T16:14:44;-4.60;66.20
38866;DHT22;62686;48.984;8.394;2022-12-18T16:17:13;-4.50;66.60
38866;DHT22;62686;48.984;8.394;2022-12-18T16:19:44;-4.50;66.50
38866;DHT22;62686;48.984;8.394;2022-12-18T16:22:19;-4.40;66.40